createdAt,value
2018-03-29T00:02:14.674Z,88.00
2018-03-29T00:04:43.365Z,103.33
2018-03-29T00:07:12.255Z,96.93
2018-03-29T00:09:40.775Z,90.53
2018-03-29T00:12:09.297Z,101.10
2018-03-29T00:14:37.876Z,102.60
2018-03-29T00:17:06.421Z,102.33
2018-03-29T00:19:35.061Z,93.50
2018-03-29T00:22:03.780Z,112.17
2018-03-29T00:24:32.356Z,96.77
2018-03-29T00:27:01.003Z,93.67
2018-03-29T00:29:29.488Z,99.43
2018-03-29T00:31:58.011Z,95.40
2018-03-29T00:34:26.544Z,108.93
2018-03-29T00:36:55.258Z,93.60
2018-03-29T00:39:23.896Z,94.50
2018-03-29T00:41:52.420Z,98.93
2018-03-29T00:44:21.069Z,96.47
2018-03-29T00:46:49.584Z,95.57
2018-03-29T00:49:18.048Z,96.77
2018-03-29T00:51:46.563Z,97.47
2018-03-29T00:54:15.028Z,89.10
2018-03-29T00:56:43.524Z,93.30
2018-03-29T00:59:12.042Z,89.07
2018-03-29T01:01:40.602Z,87.10
2018-03-29T01:04:09.291Z,85.37
2018-03-29T01:06:37.990Z,87.20
2018-03-29T01:09:06.800Z,93.37
2018-03-29T01:11:35.320Z,85.30
2018-03-29T01:14:03.944Z,93.00
2018-03-29T01:16:32.706Z,85.83
2018-03-29T01:19:01.200Z,74.43
2018-03-29T01:21:29.724Z,83.43
2018-03-29T01:23:58.223Z,75.20
2018-03-29T01:26:26.712Z,72.27
2018-03-29T01:28:55.245Z,75.13
2018-03-29T01:31:23.777Z,74.83
2018-03-29T01:33:52.440Z,79.30
2018-03-29T01:36:20.952Z,79.23
2018-03-29T01:38:49.437Z,76.17
2018-03-29T01:41:18.110Z,76.70
2018-03-29T01:43:46.645Z,75.37
2018-03-29T01:46:15.284Z,70.60
2018-03-29T01:48:43.763Z,71.70
2018-03-29T01:51:12.470Z,68.33
2018-03-29T01:53:41.112Z,68.03
2018-03-29T01:56:09.600Z,67.07
2018-03-29T01:58:38.276Z,67.40
2018-03-29T02:01:07.208Z,68.13
2018-03-29T02:03:35.672Z,65.90
2018-03-29T02:06:04.368Z,62.30
2018-03-29T02:08:32.844Z,70.60
2018-03-29T02:11:01.359Z,65.60
2018-03-29T02:13:29.985Z,66.13
2018-03-29T02:15:58.703Z,72.57
2018-03-29T02:18:27.223Z,78.67
2018-03-29T02:20:55.744Z,73.03
2018-03-29T02:23:24.326Z,80.00
2018-03-29T02:25:52.855Z,76.83
2018-03-29T02:28:21.483Z,77.73
2018-03-29T02:30:50.182Z,78.77
2018-03-29T02:33:18.824Z,79.07
2018-03-29T02:35:47.344Z,82.53
2018-03-29T02:38:15.884Z,82.37
2018-03-29T02:40:44.364Z,90.80
2018-03-29T02:43:13.046Z,82.17
2018-03-29T02:45:42.596Z,84.47
2018-03-29T02:48:11.082Z,86.00
2018-03-29T02:50:39.673Z,84.00
2018-03-29T02:53:08.317Z,83.17
2018-03-29T02:55:36.805Z,84.17
2018-03-29T02:58:05.494Z,83.83
2018-03-29T03:00:34.027Z,85.33
2018-03-29T03:03:02.912Z,80.00
2018-03-29T03:05:31.579Z,80.57
2018-03-29T03:08:00.219Z,88.77
2018-03-29T03:10:28.710Z,84.53
2018-03-29T03:12:57.389Z,87.07
2018-03-29T03:15:25.900Z,76.57
2018-03-29T03:17:54.385Z,68.50
2018-03-29T03:20:22.922Z,62.70
2018-03-29T03:22:51.397Z,62.10
2018-03-29T03:25:20.051Z,63.20
2018-03-29T03:27:48.532Z,49.80
2018-03-29T03:30:17.209Z,42.60
2018-03-29T03:32:45.712Z,45.13
2018-03-29T03:35:14.259Z,43.43
2018-03-29T03:37:42.840Z,38.23
2018-03-29T03:40:11.337Z,37.37
2018-03-29T03:42:40.004Z,32.13
2018-03-29T03:45:08.718Z,30.20
2018-03-29T03:47:37.584Z,30.70
2018-03-29T03:50:06.344Z,26.67
2018-03-29T03:52:34.812Z,26.30
2018-03-29T03:55:03.444Z,27.77
2018-03-29T03:57:32.108Z,24.33
2018-03-29T04:00:00.781Z,25.60
2018-03-29T04:03:28.666Z,23.50
2018-03-29T04:05:57.733Z,24.30
2018-03-29T04:08:25.988Z,24.30
2018-03-29T04:10:54.873Z,23.87
2018-03-29T04:13:23.328Z,23.77
2018-03-29T04:15:52.081Z,20.60
2018-03-29T04:18:20.913Z,20.67
2018-03-29T04:20:49.510Z,22.90
2018-03-29T04:23:18.316Z,18.20
2018-03-29T04:25:46.624Z,20.43
2018-03-29T04:28:14.912Z,20.50
2018-03-29T04:30:43.324Z,22.20
2018-03-29T04:33:12.109Z,20.67
2018-03-29T04:35:40.712Z,19.37
2018-03-29T04:38:09.200Z,15.60
2018-03-29T04:40:37.640Z,18.97
2018-03-29T04:43:06.151Z,19.30
2018-03-29T04:45:34.640Z,16.30
2018-03-29T04:48:03.120Z,19.50
2018-03-29T04:50:31.818Z,20.10
2018-03-29T04:53:00.470Z,20.80
2018-03-29T04:55:29.184Z,18.30
2018-03-29T04:57:57.579Z,21.47
2018-03-29T05:00:26.307Z,18.03
2018-03-29T05:02:56.378Z,14.03
2018-03-29T05:05:25.163Z,15.57
2018-03-29T05:07:53.986Z,13.30
2018-03-29T05:10:22.498Z,15.97
2018-03-29T05:12:50.974Z,11.40
2018-03-29T05:15:19.292Z,11.00
2018-03-29T05:17:47.638Z,11.70
2018-03-29T05:20:16.116Z,14.63
2018-03-29T05:22:44.873Z,12.10
2018-03-29T05:25:15.510Z,13.47
2018-03-29T05:27:48.244Z,13.50
2018-03-29T05:30:17.480Z,12.30
2018-03-29T05:32:46.224Z,15.50
2018-03-29T05:35:15.131Z,12.10
2018-03-29T05:37:43.946Z,11.40
2018-03-29T05:40:13.859Z,8.60
2018-03-29T05:42:42.813Z,9.80
2018-03-29T05:45:11.779Z,9.43
2018-03-29T05:47:40.730Z,8.97
2018-03-29T05:50:09.154Z,6.70
2018-03-29T05:52:37.581Z,7.80
2018-03-29T05:55:06.408Z,6.40
2018-03-29T05:57:35.577Z,6.67
2018-03-29T06:00:06.833Z,7.80
2018-03-29T06:02:35.520Z,9.00
2018-03-29T06:05:04.725Z,5.70
2018-03-29T06:07:33.513Z,6.50
2018-03-29T06:10:02.188Z,8.13
2018-03-29T06:12:30.955Z,20.50
2018-03-29T06:15:04.310Z,6.20
2018-03-29T06:17:32.879Z,12.67
2018-03-29T06:20:01.862Z,6.27
2018-03-29T06:22:31.253Z,9.13
2018-03-29T06:24:59.982Z,14.30
2018-03-29T06:27:28.460Z,7.50
2018-03-29T06:29:58.839Z,10.10
2018-03-29T06:32:28.424Z,8.60
2018-03-29T06:34:57.132Z,19.00
2018-03-29T06:37:26.965Z,5.33
2018-03-29T06:39:56.263Z,4.73
2018-03-29T06:42:25.418Z,4.80
2018-03-29T06:44:56.610Z,4.83
2018-03-29T06:47:25.132Z,4.43
2018-03-29T06:49:53.727Z,3.80
2018-03-29T06:52:22.113Z,5.50
2018-03-29T06:54:51.563Z,4.10
2018-03-29T06:57:20.459Z,4.37
2018-03-29T06:59:49.103Z,4.43
2018-03-29T07:02:19.066Z,4.50
2018-03-29T07:04:48.080Z,6.20
2018-03-29T07:07:17.568Z,4.60
2018-03-29T07:09:46.921Z,4.20
2018-03-29T07:12:16.112Z,3.67
2018-03-29T07:14:44.592Z,4.83
2018-03-29T07:17:13.057Z,3.57
2018-03-29T07:19:42.216Z,3.90
2018-03-29T07:22:11.720Z,4.97
2018-03-29T07:24:41.081Z,5.63
2018-03-29T07:27:10.586Z,3.23
2018-03-29T07:29:39.543Z,3.80
2018-03-29T07:32:08.552Z,3.20
2018-03-29T07:34:38.035Z,21.87
2018-03-29T07:37:07.620Z,4.30
2018-03-29T07:39:35.918Z,3.70
2018-03-29T07:42:04.436Z,2.77
2018-03-29T07:44:33.255Z,3.10
2018-03-29T07:47:02.215Z,3.50
2018-03-29T07:49:30.932Z,3.13
2018-03-29T07:52:00.308Z,3.90
2018-03-29T07:54:28.692Z,3.70
2018-03-29T07:56:57.009Z,3.47
2018-03-29T07:59:25.528Z,3.50
2018-03-29T08:01:54.417Z,3.30
2018-03-29T08:04:22.979Z,3.23
2018-03-29T08:06:51.410Z,3.20
2018-03-29T08:09:20.063Z,2.83
2018-03-29T08:11:48.505Z,2.97
2018-03-29T08:14:16.803Z,3.33
2018-03-29T08:16:45.657Z,3.27
2018-03-29T08:19:14.291Z,3.60
2018-03-29T08:21:42.829Z,2.87
2018-03-29T08:24:11.239Z,2.83
2018-03-29T08:26:39.905Z,2.83
2018-03-29T08:29:08.581Z,3.47
2018-03-29T08:31:37.025Z,4.10
2018-03-29T08:34:05.284Z,2.97
2018-03-29T08:36:34.096Z,3.10
2018-03-29T08:39:03.025Z,3.03
2018-03-29T08:41:31.480Z,3.43
2018-03-29T08:43:59.794Z,2.60
2018-03-29T08:46:28.593Z,3.17
2018-03-29T08:48:57.377Z,2.90
2018-03-29T08:51:25.770Z,3.10
2018-03-29T08:53:54.079Z,3.57
2018-03-29T08:56:24.051Z,5.20
2018-03-29T08:58:52.612Z,3.37
2018-03-29T09:01:21.577Z,3.63
2018-03-29T09:03:50.228Z,3.53
2018-03-29T09:06:18.980Z,3.90
2018-03-29T09:08:47.696Z,6.10
2018-03-29T09:11:16.309Z,4.77
2018-03-29T09:13:45.105Z,5.40
2018-03-29T09:16:13.692Z,5.00
2018-03-29T09:18:42.404Z,8.90
2018-03-29T09:21:11.179Z,8.10
2018-03-29T09:23:39.829Z,7.90
2018-03-29T09:26:08.361Z,5.00
2018-03-29T09:28:36.737Z,4.70
2018-03-29T09:31:05.180Z,4.40
2018-03-29T09:33:34.027Z,6.30
2018-03-29T09:36:02.680Z,4.63
2018-03-29T09:38:31.172Z,4.70
2018-03-29T09:40:59.427Z,6.63
2018-03-29T09:43:28.304Z,5.70
2018-03-29T09:45:56.918Z,8.03
2018-03-29T09:48:25.332Z,5.30
2018-03-29T09:50:53.800Z,7.53
2018-03-29T09:53:22.415Z,6.40
2018-03-29T09:55:51.133Z,4.43
2018-03-29T09:58:19.840Z,7.90
2018-03-29T10:00:48.617Z,5.83
2018-03-29T10:03:21.532Z,5.50
2018-03-29T10:05:50.063Z,5.20
2018-03-29T10:08:18.507Z,7.50
2018-03-29T10:10:46.948Z,5.43
2018-03-29T10:13:15.377Z,5.40
2018-03-29T10:15:43.956Z,5.10
2018-03-29T10:18:12.403Z,4.17
2018-03-29T10:20:40.913Z,6.63
2018-03-29T10:23:09.356Z,3.97
2018-03-29T10:25:38.021Z,4.07
2018-03-29T10:28:06.555Z,6.43
2018-03-29T10:30:35.362Z,5.30
2018-03-29T10:33:04.184Z,5.40
2018-03-29T10:35:33.004Z,6.00
2018-03-29T10:38:01.364Z,5.70
2018-03-29T10:40:29.984Z,6.10
2018-03-29T10:42:58.353Z,4.60
2018-03-29T10:45:27.184Z,5.63
2018-03-29T10:47:56.008Z,5.13
2018-03-29T10:50:24.951Z,4.00
2018-03-29T10:52:53.238Z,3.60
2018-03-29T10:55:22.109Z,8.10
2018-03-29T10:57:50.829Z,5.30
2018-03-29T11:00:19.579Z,5.97
2018-03-29T11:02:48.360Z,7.80
2018-03-29T11:05:17.082Z,4.60
2018-03-29T11:07:45.728Z,10.10
2018-03-29T11:10:14.106Z,11.03
2018-03-29T11:12:42.618Z,3.93
2018-03-29T11:15:11.238Z,3.73
2018-03-29T11:17:39.576Z,4.40
2018-03-29T11:20:08.151Z,4.70
2018-03-29T11:22:36.795Z,4.03
2018-03-29T11:25:05.278Z,4.90
2018-03-29T11:27:33.649Z,6.03
2018-03-29T11:30:02.405Z,3.57
2018-03-29T11:32:30.899Z,6.40
2018-03-29T11:34:59.620Z,5.20
2018-03-29T11:37:28.556Z,4.60
2018-03-29T11:39:57.108Z,5.93
2018-03-29T11:42:25.568Z,5.47
2018-03-29T11:44:54.247Z,5.93
2018-03-29T11:47:22.711Z,5.93
2018-03-29T11:49:51.132Z,6.73
2018-03-29T11:52:19.776Z,3.97
2018-03-29T11:54:48.290Z,4.17
2018-03-29T11:57:17.228Z,9.23
2018-03-29T11:59:45.726Z,5.70
2018-03-29T12:02:14.589Z,5.37
2018-03-29T12:04:43.018Z,6.20
2018-03-29T12:07:11.645Z,6.03
2018-03-29T12:09:39.998Z,9.47
2018-03-29T12:12:08.910Z,7.00
2018-03-29T12:14:37.520Z,5.73
2018-03-29T12:17:05.864Z,6.60
2018-03-29T12:19:34.425Z,3.63
2018-03-29T12:22:03.196Z,5.97
2018-03-29T12:24:31.647Z,3.50
2018-03-29T12:27:00.124Z,7.23
2018-03-29T12:29:28.838Z,4.77
2018-03-29T12:31:57.573Z,4.73
2018-03-29T12:34:26.175Z,5.50
2018-03-29T12:36:54.587Z,6.43
2018-03-29T12:39:23.575Z,5.00
2018-03-29T12:41:52.545Z,7.00
2018-03-29T12:44:20.917Z,6.23
2018-03-29T12:46:49.553Z,5.27
2018-03-29T12:49:18.176Z,8.03
2018-03-29T12:51:46.839Z,6.07
2018-03-29T12:54:15.673Z,8.60
2018-03-29T12:56:53.099Z,8.50
2018-03-29T12:59:21.653Z,6.90
2018-03-29T13:01:50.204Z,8.77
2018-03-29T13:04:19.023Z,8.03
2018-03-29T13:06:47.769Z,6.93
2018-03-29T13:09:16.427Z,10.00
2018-03-29T13:11:45.353Z,12.13
2018-03-29T13:14:14.264Z,13.67
2018-03-29T13:16:42.696Z,12.20
2018-03-29T13:19:11.437Z,9.13
2018-03-29T13:21:39.825Z,13.57
2018-03-29T13:24:08.369Z,10.30
2018-03-29T13:26:37.012Z,12.30
2018-03-29T13:29:05.498Z,10.37
2018-03-29T13:31:33.920Z,11.03
2018-03-29T13:34:02.432Z,10.63
2018-03-29T13:36:30.802Z,12.50
2018-03-29T13:38:59.231Z,11.90
2018-03-29T13:41:27.681Z,13.47
2018-03-29T13:43:56.188Z,13.33
2018-03-29T13:46:24.702Z,10.70
2018-03-29T13:48:53.377Z,10.40
2018-03-29T13:51:21.998Z,11.40
2018-03-29T13:53:50.812Z,11.70
2018-03-29T13:56:19.668Z,11.87
2018-03-29T13:58:48.100Z,13.53
2018-03-29T14:01:16.562Z,15.53
2018-03-29T14:03:45.337Z,14.83
2018-03-29T14:06:13.779Z,12.57
2018-03-29T14:08:42.469Z,13.53
2018-03-29T14:11:10.927Z,18.40
2018-03-29T14:13:39.850Z,16.30
2018-03-29T14:16:08.480Z,13.20
2018-03-29T14:18:36.872Z,17.23
2018-03-29T14:21:05.475Z,14.70
2018-03-29T14:23:34.404Z,16.17
2018-03-29T14:26:02.674Z,14.90
2018-03-29T14:28:31.430Z,15.77
2018-03-29T14:31:00.532Z,17.30
2018-03-29T14:33:29.032Z,14.20
2018-03-29T14:35:57.759Z,14.87
2018-03-29T14:38:26.405Z,29.83
2018-03-29T14:40:54.967Z,16.73
2018-03-29T14:43:24.013Z,17.70
2018-03-29T14:45:52.536Z,15.73
2018-03-29T14:48:21.253Z,13.53
2018-03-29T14:50:50.081Z,13.70
2018-03-29T14:53:18.773Z,18.80
2018-03-29T14:55:47.353Z,17.30
2018-03-29T14:58:15.744Z,18.23
2018-03-29T15:00:44.158Z,17.67
2018-03-29T15:03:14.848Z,16.13
2018-03-29T15:05:43.569Z,16.20
2018-03-29T15:08:12.417Z,16.03
2018-03-29T15:10:40.928Z,16.10
2018-03-29T15:13:09.485Z,17.47
2018-03-29T15:15:38.211Z,16.93
2018-03-29T15:18:07.045Z,16.40
2018-03-29T15:20:35.353Z,17.90
2018-03-29T15:23:04.497Z,17.23
2018-03-29T15:25:33.667Z,21.43
2018-03-29T15:28:02.326Z,17.40
2018-03-29T15:30:30.671Z,21.37
2018-03-29T15:32:59.406Z,24.50
2018-03-29T15:35:27.988Z,21.00
2018-03-29T15:37:56.679Z,22.77
2018-03-29T15:40:25.240Z,19.50
2018-03-29T15:42:53.683Z,17.70
2018-03-29T15:45:22.432Z,20.97
2018-03-29T15:47:50.847Z,22.67
2018-03-29T15:50:19.467Z,21.87
2018-03-29T15:52:47.836Z,22.10
2018-03-29T15:55:16.768Z,19.10
2018-03-29T15:57:45.111Z,19.07
2018-03-29T16:00:13.531Z,22.87
2018-03-29T16:02:42.184Z,19.50
2018-03-29T16:05:10.619Z,22.40
2018-03-29T16:07:39.097Z,19.80
2018-03-29T16:10:08.024Z,20.97
2018-03-29T16:12:36.778Z,19.20
2018-03-29T16:15:05.184Z,20.40
2018-03-29T16:17:33.543Z,21.57
2018-03-29T16:20:02.149Z,18.37
2018-03-29T16:22:30.908Z,17.43
2018-03-29T16:24:59.268Z,20.17
2018-03-29T16:27:28.255Z,19.37
2018-03-29T16:29:56.627Z,21.00
2018-03-29T16:32:25.002Z,18.93
2018-03-29T16:34:53.422Z,20.70
2018-03-29T16:37:21.949Z,19.70
2018-03-29T16:39:50.527Z,18.40
2018-03-29T16:42:19.021Z,18.87
2018-03-29T16:44:47.351Z,19.93
2018-03-29T16:47:16.160Z,18.53
2018-03-29T16:49:44.945Z,21.43
2018-03-29T16:52:13.889Z,20.97
2018-03-29T16:54:42.535Z,20.60
2018-03-29T16:57:11.006Z,20.33
2018-03-29T16:59:39.472Z,17.57
2018-03-29T17:02:08.206Z,19.87
2018-03-29T17:04:36.819Z,23.73
2018-03-29T17:07:05.316Z,19.20
2018-03-29T17:09:33.984Z,21.67
2018-03-29T17:12:02.509Z,15.47
2018-03-29T17:14:31.011Z,20.30
2018-03-29T17:16:59.700Z,15.60
2018-03-29T17:19:28.184Z,22.20
2018-03-29T17:21:56.832Z,21.37
2018-03-29T17:24:25.248Z,20.00
2018-03-29T17:26:53.790Z,22.70
2018-03-29T17:29:22.179Z,25.07
2018-03-29T17:31:51.024Z,16.27
2018-03-29T17:34:20.095Z,15.43
2018-03-29T17:36:48.635Z,20.40
2018-03-29T17:39:16.955Z,18.90
2018-03-29T17:41:45.526Z,21.60
2018-03-29T17:44:14.084Z,21.40
2018-03-29T17:46:42.746Z,28.37
2018-03-29T17:49:11.257Z,23.17
2018-03-29T17:51:40.008Z,29.23
2018-03-29T17:54:08.840Z,24.50
2018-03-29T17:56:37.732Z,20.97
2018-03-29T17:59:06.153Z,28.73
2018-03-29T18:01:34.734Z,27.60
2018-03-29T18:04:03.116Z,24.40
2018-03-29T18:06:32.000Z,24.83
2018-03-29T18:09:00.621Z,31.00
2018-03-29T18:11:28.904Z,24.83
2018-03-29T18:13:57.733Z,24.63
2018-03-29T18:16:26.725Z,24.13
2018-03-29T18:18:55.252Z,26.70
2018-03-29T18:21:24.049Z,22.23
2018-03-29T18:23:52.685Z,23.80
2018-03-29T18:26:21.653Z,25.80
2018-03-29T18:28:50.233Z,22.80
2018-03-29T18:31:20.942Z,24.17
2018-03-29T18:33:49.592Z,29.80
2018-03-29T18:36:18.379Z,27.80
2018-03-29T18:38:47.184Z,31.33
2018-03-29T18:41:16.341Z,27.97
2018-03-29T18:43:44.772Z,28.27
2018-03-29T18:46:13.651Z,25.57
2018-03-29T18:48:44.441Z,28.00
2018-03-29T18:51:17.152Z,30.80
2018-03-29T18:53:47.943Z,32.67
2018-03-29T18:56:18.383Z,34.40
2018-03-29T18:58:46.870Z,32.50
2018-03-29T19:01:15.647Z,31.90
2018-03-29T19:03:45.716Z,37.20
2018-03-29T19:06:14.432Z,36.37
2018-03-29T19:08:43.663Z,34.80
2018-03-29T19:11:12.391Z,34.67
2018-03-29T19:13:41.177Z,32.50
2018-03-29T19:16:09.856Z,37.27
2018-03-29T19:18:38.389Z,33.40
2018-03-29T19:21:07.308Z,31.73
2018-03-29T19:23:35.749Z,37.67
2018-03-29T19:26:04.732Z,35.90
2018-03-29T19:28:33.138Z,39.00
2018-03-29T19:31:01.924Z,38.70
2018-03-29T19:33:30.536Z,36.10
2018-03-29T19:35:58.992Z,35.83
2018-03-29T19:38:27.455Z,33.30
2018-03-29T19:40:56.152Z,38.23
2018-03-29T19:43:24.797Z,35.00
2018-03-29T19:45:53.351Z,31.50
2018-03-29T19:48:21.920Z,37.60
2018-03-29T19:50:50.507Z,38.57
2018-03-29T19:53:19.226Z,37.80
2018-03-29T19:55:47.868Z,40.77
2018-03-29T19:58:16.253Z,37.23
2018-03-29T20:00:45.054Z,36.70
2018-03-29T20:03:14.238Z,32.10
2018-03-29T20:05:43.426Z,37.80
2018-03-29T20:08:11.945Z,40.23
2018-03-29T20:10:40.391Z,36.53
2018-03-29T20:13:09.013Z,46.87
2018-03-29T20:15:37.524Z,34.60
2018-03-29T20:18:07.304Z,35.57
2018-03-29T20:20:37.550Z,36.90
2018-03-29T20:23:06.162Z,37.80
2018-03-29T20:25:35.403Z,38.00
2018-03-29T20:28:03.991Z,36.90
2018-03-29T20:30:32.810Z,47.97
2018-03-29T20:33:01.895Z,38.80
2018-03-29T20:35:31.171Z,34.17
2018-03-29T20:37:59.837Z,31.73
2018-03-29T20:40:28.783Z,34.33
2018-03-29T20:42:57.557Z,39.13
2018-03-29T20:45:25.870Z,33.40
2018-03-29T20:47:54.481Z,34.70
2018-03-29T20:50:23.644Z,34.37
2018-03-29T20:52:52.092Z,28.10
2018-03-29T20:55:20.576Z,27.60
2018-03-29T20:57:49.124Z,113.47
2018-03-29T21:00:17.582Z,49.47
2018-03-29T21:02:46.072Z,50.70
2018-03-29T21:05:14.533Z,34.60
2018-03-29T21:07:43.125Z,39.40
2018-03-29T21:10:11.784Z,34.90
2018-03-29T21:12:40.159Z,34.50
2018-03-29T21:15:08.689Z,27.13
2018-03-29T21:17:37.074Z,26.83
2018-03-29T21:20:05.600Z,33.60
2018-03-29T21:22:34.281Z,32.57
2018-03-29T21:25:02.768Z,27.83
2018-03-29T21:27:31.145Z,28.00
2018-03-29T21:29:59.554Z,26.53
2018-03-29T21:32:28.020Z,27.27
2018-03-29T21:34:56.377Z,31.60
2018-03-29T21:37:25.984Z,30.87
2018-03-29T21:39:54.462Z,33.07
2018-03-29T21:42:22.938Z,29.67
2018-03-29T21:44:51.472Z,23.93
2018-03-29T21:47:19.904Z,23.40
2018-03-29T21:49:48.641Z,26.47
2018-03-29T21:52:17.514Z,27.30
2018-03-29T21:54:46.299Z,27.50
2018-03-29T21:57:15.139Z,24.97
2018-03-29T21:59:43.933Z,24.80
2018-03-29T22:02:12.660Z,37.10
2018-03-29T22:04:41.303Z,28.73
2018-03-29T22:07:10.113Z,32.27
2018-03-29T22:09:38.476Z,36.90
2018-03-29T22:12:07.033Z,36.47
2018-03-29T22:14:36.086Z,32.70
2018-03-29T22:17:04.833Z,27.67
2018-03-29T22:19:33.720Z,25.67
2018-03-29T22:22:02.005Z,26.20
2018-03-29T22:24:30.825Z,26.77
2018-03-29T22:26:59.401Z,28.33
2018-03-29T22:29:27.852Z,30.40
2018-03-29T22:31:56.155Z,34.97
2018-03-29T22:34:24.489Z,44.17
2018-03-29T22:36:53.028Z,37.63
2018-03-29T22:39:21.332Z,32.30
2018-03-29T22:41:50.203Z,47.13
2018-03-29T22:44:18.639Z,38.43
2018-03-29T22:46:47.281Z,27.67
2018-03-29T22:49:15.594Z,32.07
2018-03-29T22:51:44.170Z,29.30
2018-03-29T22:54:13.039Z,29.97
2018-03-29T22:56:41.418Z,29.27
2018-03-29T22:59:10.457Z,28.90
2018-03-29T23:01:39.292Z,26.30
2018-03-29T23:04:08.149Z,30.50
2018-03-29T23:06:37.088Z,28.30
2018-03-29T23:09:06.141Z,33.63
2018-03-29T23:11:34.534Z,35.30
2018-03-29T23:14:02.969Z,24.97
2018-03-29T23:16:31.996Z,27.63
2018-03-29T23:19:00.665Z,27.70
2018-03-29T23:21:29.008Z,32.60
2018-03-29T23:23:57.468Z,30.17
2018-03-29T23:26:25.865Z,36.37
2018-03-29T23:28:54.524Z,26.00
2018-03-29T23:31:22.915Z,25.90
2018-03-29T23:33:51.340Z,28.30
2018-03-29T23:36:20.109Z,24.87
2018-03-29T23:38:49.182Z,29.40
2018-03-29T23:41:17.990Z,28.17
2018-03-29T23:43:46.935Z,23.17
2018-03-29T23:46:15.629Z,29.80
2018-03-29T23:48:44.534Z,29.87
2018-03-29T23:51:13.270Z,28.70
2018-03-29T23:53:41.650Z,21.87
2018-03-29T23:56:10.177Z,27.93
2018-03-29T23:58:38.824Z,26.40
